sensor_id;sensor_type;location;lat;lon;timestamp;pressure;altitude;pressure_sealevel;temperature;humidity
32761;BME280;19126;47.472;7.850;2023-02-13T02:04:36;98375.34;;;2.78;69.32
32761;BME280;19126;47.472;7.850;2023-02-13T02:07:10;98384.63;;;2.83;69.57
32761;BME280;19126;47.472;7.850;2023-02-13T02:09:41;98383.72;;;2.84;69.21
32761;BME280;19126;47.472;7.850;2023-02-13T02:12:12;98388.06;;;2.83;71.57
32761;BME280;19126;47.472;7.850;2023-02-13T02:14:46;98380.38;;;2.82;71.61
32761;BME280;19126;47.472;7.850;2023-02-13T02:17:20;98365.72;;;2.81;72.57
32761;BME280;19126;47.472;7.850;2023-02-13T02:42:08;98369.13;;;2.81;70.84
32761;BME280;19126;47.472;7.850;2023-02-13T02:44:45;98362.69;;;2.72;72.22
32761;BME280;19126;47.472;7.850;2023-02-13T02:47:27;98360.91;;;2.73;72.20
32761;BME280;19126;47.472;7.850;2023-02-13T02:50:24;98361.19;;;2.68;73.06
32761;BME280;19126;47.472;7.850;2023-02-13T02:53:05;98354.97;;;2.71;72.32
32761;BME280;19126;47.472;7.850;2023-02-13T02:56:04;98353.41;;;2.68;72.55
32761;BME280;19126;47.472;7.850;2023-02-13T02:58:42;98348.09;;;2.70;72.37
32761;BME280;19126;47.472;7.850;2023-02-13T03:01:29;98360.91;;;2.73;71.57
32761;BME280;19126;47.472;7.850;2023-02-13T03:04:29;98350.03;;;2.66;71.64
32761;BME280;19126;47.472;7.850;2023-02-13T03:07:17;98365.44;;;2.69;70.73
32761;BME280;19126;47.472;7.850;2023-02-13T03:09:57;98365.28;;;2.72;70.82
32761;BME280;19126;47.472;7.850;2023-02-13T03:12:51;98357.81;;;2.66;71.92
32761;BME280;19126;47.472;7.850;2023-02-13T03:15:43;98359.00;;;2.76;72.75
32761;BME280;19126;47.472;7.850;2023-02-13T03:34:13;98363.19;;;2.79;76.51
32761;BME280;19126;47.472;7.850;2023-02-13T03:37:02;98365.63;;;2.82;77.60
32761;BME280;19126;47.472;7.850;2023-02-13T05:33:18;98406.34;;;2.13;88.66
32761;BME280;19126;47.472;7.850;2023-02-13T05:35:46;98400.84;;;2.01;88.96
32761;BME280;19126;47.472;7.850;2023-02-13T05:38:13;98404.50;;;1.97;87.38
32761;BME280;19126;47.472;7.850;2023-02-13T05:40:41;98395.28;;;1.92;85.92
32761;BME280;19126;47.472;7.850;2023-02-13T05:43:08;98403.66;;;1.97;86.20
32761;BME280;19126;47.472;7.850;2023-02-13T05:45:35;98408.38;;;1.88;85.31
32761;BME280;19126;47.472;7.850;2023-02-13T05:48:02;98416.00;;;1.92;85.34
32761;BME280;19126;47.472;7.850;2023-02-13T05:50:33;98411.88;;;1.87;85.13
32761;BME280;19126;47.472;7.850;2023-02-13T05:53:01;98413.81;;;1.84;84.79
32761;BME280;19126;47.472;7.850;2023-02-13T05:55:32;98408.97;;;1.76;85.20
32761;BME280;19126;47.472;7.850;2023-02-13T05:57:59;98408.31;;;1.72;84.65
32761;BME280;19126;47.472;7.850;2023-02-13T06:00:26;98414.00;;;1.79;84.84
32761;BME280;19126;47.472;7.850;2023-02-13T06:02:55;98387.72;;;1.69;84.61
32761;BME280;19126;47.472;7.850;2023-02-13T06:05:53;98398.16;;;1.68;82.72
32761;BME280;19126;47.472;7.850;2023-02-13T06:08:25;98400.81;;;1.66;83.54
32761;BME280;19126;47.472;7.850;2023-02-13T06:11:07;98409.06;;;1.74;82.23
32761;BME280;19126;47.472;7.850;2023-02-13T06:13:37;98417.91;;;1.70;81.77
32761;BME280;19126;47.472;7.850;2023-02-13T06:16:09;98422.38;;;1.67;83.51
32761;BME280;19126;47.472;7.850;2023-02-13T06:18:36;98413.50;;;1.53;83.67
32761;BME280;19126;47.472;7.850;2023-02-13T06:21:13;98424.50;;;1.58;82.49
32761;BME280;19126;47.472;7.850;2023-02-13T06:23:49;98420.66;;;1.48;83.13
32761;BME280;19126;47.472;7.850;2023-02-13T06:26:18;98429.44;;;1.45;82.50
32761;BME280;19126;47.472;7.850;2023-02-13T06:28:48;98430.09;;;1.49;79.99
32761;BME280;19126;47.472;7.850;2023-02-13T06:31:21;98432.03;;;1.45;80.65
32761;BME280;19126;47.472;7.850;2023-02-13T06:33:51;98430.34;;;1.44;79.75
32761;BME280;19126;47.472;7.850;2023-02-13T06:36:25;98433.56;;;1.50;78.43
32761;BME280;19126;47.472;7.850;2023-02-13T06:38:52;98436.53;;;1.59;78.57
32761;BME280;19126;47.472;7.850;2023-02-13T06:41:23;98439.25;;;1.56;79.40
32761;BME280;19126;47.472;7.850;2023-02-13T06:43:53;98434.03;;;1.58;77.77
32761;BME280;19126;47.472;7.850;2023-02-13T06:46:26;98442.75;;;1.55;78.06
32761;BME280;19126;47.472;7.850;2023-02-13T06:48:59;98439.41;;;1.53;79.72
32761;BME280;19126;47.472;7.850;2023-02-13T06:51:33;98439.41;;;1.53;79.16
32761;BME280;19126;47.472;7.850;2023-02-13T06:54:04;98435.00;;;1.55;80.33
32761;BME280;19126;47.472;7.850;2023-02-13T06:56:35;98430.81;;;1.53;80.90
32761;BME280;19126;47.472;7.850;2023-02-13T06:59:07;98433.56;;;1.50;80.84
32761;BME280;19126;47.472;7.850;2023-02-13T07:01:40;98442.72;;;1.57;80.77
32761;BME280;19126;47.472;7.850;2023-02-13T07:04:08;98443.69;;;1.54;81.86
32761;BME280;19126;47.472;7.850;2023-02-13T07:06:39;98445.50;;;1.52;81.77
32761;BME280;19126;47.472;7.850;2023-02-13T07:09:23;98459.06;;;1.57;82.77
32761;BME280;19126;47.472;7.850;2023-02-13T07:11:50;98443.53;;;1.57;82.23
32761;BME280;19126;47.472;7.850;2023-02-13T07:14:23;98459.03;;;1.59;83.02
32761;BME280;19126;47.472;7.850;2023-02-13T07:16:53;98451.16;;;1.60;83.86
32761;BME280;19126;47.472;7.850;2023-02-13T07:19:31;98450.97;;;1.65;84.66
32761;BME280;19126;47.472;7.850;2023-02-13T07:22:02;98453.25;;;1.71;84.78
32761;BME280;19126;47.472;7.850;2023-02-13T07:24:37;98448.22;;;1.68;84.74
32761;BME280;19126;47.472;7.850;2023-02-13T07:27:04;98453.59;;;1.83;85.45
32761;BME280;19126;47.472;7.850;2023-02-13T07:29:31;98455.97;;;2.05;85.94
32761;BME280;19126;47.472;7.850;2023-02-13T07:32:02;98453.00;;;2.30;86.12
32761;BME280;19126;47.472;7.850;2023-02-13T07:34:39;98452.00;;;2.51;90.11
32761;BME280;19126;47.472;7.850;2023-02-13T07:37:19;98460.03;;;3.77;97.01
32761;BME280;19126;47.472;7.850;2023-02-13T07:39:51;98472.13;;;5.57;100.00
32761;BME280;19126;47.472;7.850;2023-02-13T07:42:23;98459.78;;;6.28;100.00
32761;BME280;19126;47.472;7.850;2023-02-13T07:45:05;98471.09;;;5.45;100.00
32761;BME280;19126;47.472;7.850;2023-02-13T07:47:36;98469.84;;;4.94;100.00
32761;BME280;19126;47.472;7.850;2023-02-13T07:50:05;98465.06;;;4.13;100.00
32761;BME280;19126;47.472;7.850;2023-02-13T07:52:39;98458.50;;;4.36;100.00
32761;BME280;19126;47.472;7.850;2023-02-13T07:55:09;98467.91;;;4.38;100.00
32761;BME280;19126;47.472;7.850;2023-02-13T07:57:42;98464.59;;;4.51;100.00
32761;BME280;19126;47.472;7.850;2023-02-13T08:00:22;98463.72;;;4.36;100.00
32761;BME280;19126;47.472;7.850;2023-02-13T08:02:52;98464.81;;;4.32;100.00
32761;BME280;19126;47.472;7.850;2023-02-13T08:05:22;98473.69;;;4.44;100.00
32761;BME280;19126;47.472;7.850;2023-02-13T08:07:53;98468.69;;;4.55;100.00
32761;BME280;19126;47.472;7.850;2023-02-13T08:10:25;98477.59;;;4.20;100.00
32761;BME280;19126;47.472;7.850;2023-02-13T08:13:10;98476.19;;;4.45;100.00
32761;BME280;19126;47.472;7.850;2023-02-13T08:15:40;98465.31;;;4.38;100.00
32761;BME280;19126;47.472;7.850;2023-02-13T08:18:11;98470.94;;;4.61;100.00
32761;BME280;19126;47.472;7.850;2023-02-13T08:20:38;98469.06;;;4.63;100.00
32761;BME280;19126;47.472;7.850;2023-02-13T08:23:10;98470.59;;;4.82;100.00
32761;BME280;19126;47.472;7.850;2023-02-13T08:25:51;98469.84;;;4.80;100.00
32761;BME280;19126;47.472;7.850;2023-02-13T08:28:22;98474.56;;;5.17;100.00
32761;BME280;19126;47.472;7.850;2023-02-13T08:30:56;98459.50;;;5.07;100.00
32761;BME280;19126;47.472;7.850;2023-02-13T08:33:26;98473.25;;;4.95;100.00
32761;BME280;19126;47.472;7.850;2023-02-13T08:36:04;98454.78;;;4.99;100.00
32761;BME280;19126;47.472;7.850;2023-02-13T08:38:36;98468.50;;;4.58;100.00
32761;BME280;19126;47.472;7.850;2023-02-13T08:41:04;98462.22;;;4.91;100.00
32761;BME280;19126;47.472;7.850;2023-02-13T08:43:37;98474.81;;;4.54;100.00
32761;BME280;19126;47.472;7.850;2023-02-13T08:46:07;98469.84;;;4.80;100.00
32761;BME280;19126;47.472;7.850;2023-02-13T08:48:35;98474.28;;;4.78;100.00
32761;BME280;19126;47.472;7.850;2023-02-13T08:51:05;98456.63;;;5.12;100.00
32761;BME280;19126;47.472;7.850;2023-02-13T08:53:37;98455.31;;;4.61;100.00
32761;BME280;19126;47.472;7.850;2023-02-13T08:56:05;98457.81;;;4.92;100.00
32761;BME280;19126;47.472;7.850;2023-02-13T08:58:42;98460.06;;;5.12;100.00
32761;BME280;19126;47.472;7.850;2023-02-13T09:01:13;98459.50;;;5.22;100.00
32761;BME280;19126;47.472;7.850;2023-02-13T09:03:43;98457.63;;;5.24;100.00
32761;BME280;19126;47.472;7.850;2023-02-13T09:06:17;98449.66;;;5.54;100.00
32761;BME280;19126;47.472;7.850;2023-02-13T09:08:46;98459.50;;;5.22;99.59
32761;BME280;19126;47.472;7.850;2023-02-13T09:11:13;98458.59;;;5.65;99.96
32761;BME280;19126;47.472;7.850;2023-02-13T09:13:40;98462.09;;;5.36;98.52
32761;BME280;19126;47.472;7.850;2023-02-13T09:16:10;98470.03;;;5.77;98.32
32761;BME280;19126;47.472;7.850;2023-02-13T09:18:40;98469.75;;;5.67;99.13
32761;BME280;19126;47.472;7.850;2023-02-13T09:21:10;98457.53;;;5.82;96.66
32761;BME280;19126;47.472;7.850;2023-02-13T09:23:51;98470.47;;;6.11;95.56
32761;BME280;19126;47.472;7.850;2023-02-13T09:26:22;98472.34;;;6.09;93.79
32761;BME280;19126;47.472;7.850;2023-02-13T09:28:52;98468.63;;;6.26;93.97
32761;BME280;19126;47.472;7.850;2023-02-13T09:31:27;98469.34;;;6.15;92.81
32761;BME280;19126;47.472;7.850;2023-02-13T09:33:54;98469.50;;;6.39;92.18
32761;BME280;19126;47.472;7.850;2023-02-13T09:36:22;98469.00;;;6.73;94.45
32761;BME280;19126;47.472;7.850;2023-02-13T09:38:53;98477.47;;;7.28;93.95
32761;BME280;19126;47.472;7.850;2023-02-13T09:41:29;98473.53;;;7.84;93.07
32761;BME280;19126;47.472;7.850;2023-02-13T09:44:00;98484.69;;;8.35;89.77
32761;BME280;19126;47.472;7.850;2023-02-13T09:46:35;98483.84;;;8.23;82.96
32761;BME280;19126;47.472;7.850;2023-02-13T09:49:07;98478.53;;;7.87;80.41
32761;BME280;19126;47.472;7.850;2023-02-13T09:51:43;98483.34;;;8.18;81.85
32761;BME280;19126;47.472;7.850;2023-02-13T09:54:13;98481.22;;;8.59;81.84
32761;BME280;19126;47.472;7.850;2023-02-13T09:56:47;98474.06;;;8.49;81.22
32761;BME280;19126;47.472;7.850;2023-02-13T09:59:42;98475.56;;;9.22;81.72
32761;BME280;19126;47.472;7.850;2023-02-13T10:02:22;98486.53;;;9.61;78.74
32761;BME280;19126;47.472;7.850;2023-02-13T10:05:00;98480.00;;;8.99;74.55
32761;BME280;19126;47.472;7.850;2023-02-13T10:07:37;98481.09;;;8.25;74.76
32761;BME280;19126;47.472;7.850;2023-02-13T10:10:15;98491.28;;;7.92;76.16
32761;BME280;19126;47.472;7.850;2023-02-13T10:13:04;98488.88;;;7.65;80.78
32761;BME280;19126;47.472;7.850;2023-02-13T10:15:42;98484.47;;;7.15;81.81
32761;BME280;19126;47.472;7.850;2023-02-13T10:18:16;98489.09;;;6.72;83.42
32761;BME280;19126;47.472;7.850;2023-02-13T10:20:58;98490.50;;;6.38;86.46
32761;BME280;19126;47.472;7.850;2023-02-13T10:23:32;98478.06;;;6.41;87.23
32761;BME280;19126;47.472;7.850;2023-02-13T10:26:07;98496.41;;;6.27;86.38
32761;BME280;19126;47.472;7.850;2023-02-13T10:28:47;98481.31;;;6.58;87.19
32761;BME280;19126;47.472;7.850;2023-02-13T10:31:42;98478.72;;;6.71;88.62
32761;BME280;19126;47.472;7.850;2023-02-13T10:34:15;98480.31;;;6.86;87.03
32761;BME280;19126;47.472;7.850;2023-02-13T10:36:48;98465.16;;;6.66;87.10
32761;BME280;19126;47.472;7.850;2023-02-13T10:39:25;98469.22;;;6.70;88.00
32761;BME280;19126;47.472;7.850;2023-02-13T10:41:58;98463.38;;;6.53;88.08
32761;BME280;19126;47.472;7.850;2023-02-13T10:44:42;98461.66;;;6.39;88.24
32761;BME280;19126;47.472;7.850;2023-02-13T10:47:23;98462.63;;;6.51;89.33
32761;BME280;19126;47.472;7.850;2023-02-13T10:50:02;98453.25;;;6.74;87.47
32761;BME280;19126;47.472;7.850;2023-02-13T10:52:41;98443.44;;;6.65;86.19
32761;BME280;19126;47.472;7.850;2023-02-13T10:55:24;98443.09;;;6.57;87.87
32761;BME280;19126;47.472;7.850;2023-02-13T10:58:07;98440.69;;;6.41;88.40
32761;BME280;19126;47.472;7.850;2023-02-13T11:00:47;98437.66;;;6.47;87.88
32761;BME280;19126;47.472;7.850;2023-02-13T11:03:21;98439.66;;;6.56;88.44
32761;BME280;19126;47.472;7.850;2023-02-13T11:05:53;98446.38;;;6.73;88.53
32761;BME280;19126;47.472;7.850;2023-02-13T11:08:37;98434.22;;;6.85;87.79
32761;BME280;19126;47.472;7.850;2023-02-13T11:11:29;98426.28;;;6.74;87.01
32761;BME280;19126;47.472;7.850;2023-02-13T11:14:15;98432.66;;;6.96;86.40
32761;BME280;19126;47.472;7.850;2023-02-13T11:16:56;98424.81;;;6.96;84.92
32761;BME280;19126;47.472;7.850;2023-02-13T11:19:31;98435.78;;;7.01;85.12
32761;BME280;19126;47.472;7.850;2023-02-13T11:22:07;98433.84;;;7.29;84.29
32761;BME280;19126;47.472;7.850;2023-02-13T11:24:38;98436.22;;;7.45;82.08
32761;BME280;19126;47.472;7.850;2023-02-13T11:27:09;98434.84;;;7.39;84.20
32761;BME280;19126;47.472;7.850;2023-02-13T11:29:51;98425.16;;;7.66;84.22
32761;BME280;19126;47.472;7.850;2023-02-13T11:32:28;98436.88;;;7.60;79.84
32761;BME280;19126;47.472;7.850;2023-02-13T11:35:15;98429.31;;;7.68;80.97
32761;BME280;19126;47.472;7.850;2023-02-13T11:38:18;98422.59;;;7.77;83.77
32761;BME280;19126;47.472;7.850;2023-02-13T11:41:09;98421.03;;;7.74;80.65
32761;BME280;19126;47.472;7.850;2023-02-13T11:43:43;98412.41;;;7.61;81.40
32761;BME280;19126;47.472;7.850;2023-02-13T11:46:20;98421.09;;;7.61;81.29
32761;BME280;19126;47.472;7.850;2023-02-13T11:49:02;98414.50;;;7.56;81.25
32761;BME280;19126;47.472;7.850;2023-02-13T11:51:41;98412.03;;;7.54;81.23
32761;BME280;19126;47.472;7.850;2023-02-13T11:54:26;98421.59;;;7.67;82.21
32761;BME280;19126;47.472;7.850;2023-02-13T11:56:57;98421.38;;;7.70;81.03
32761;BME280;19126;47.472;7.850;2023-02-13T11:59:30;98411.72;;;7.70;81.74
32761;BME280;19126;47.472;7.850;2023-02-13T12:02:12;98409.78;;;7.85;83.87
32761;BME280;19126;47.472;7.850;2023-02-13T12:04:42;98409.28;;;8.04;84.69
32761;BME280;19126;47.472;7.850;2023-02-13T12:07:15;98404.22;;;7.90;84.06
32761;BME280;19126;47.472;7.850;2023-02-13T12:09:46;98400.75;;;8.14;84.38
32761;BME280;19126;47.472;7.850;2023-02-13T12:12:17;98401.97;;;8.21;84.70
32761;BME280;19126;47.472;7.850;2023-02-13T12:14:48;98402.00;;;8.32;84.85
32761;BME280;19126;47.472;7.850;2023-02-13T12:17:21;98403.78;;;8.43;84.35
32761;BME280;19126;47.472;7.850;2023-02-13T12:19:49;98398.06;;;8.38;83.04
32761;BME280;19126;47.472;7.850;2023-02-13T12:22:38;98406.72;;;7.91;83.37
32761;BME280;19126;47.472;7.850;2023-02-13T12:28:13;98395.88;;;8.20;82.93
32761;BME280;19126;47.472;7.850;2023-02-13T12:31:02;98387.56;;;8.38;84.35
32761;BME280;19126;47.472;7.850;2023-02-13T12:33:50;98389.31;;;8.62;82.14
32761;BME280;19126;47.472;7.850;2023-02-13T12:36:22;98391.41;;;8.45;80.13
32761;BME280;19126;47.472;7.850;2023-02-13T12:39:01;98386.81;;;8.49;79.86
32761;BME280;19126;47.472;7.850;2023-02-13T12:41:34;98372.09;;;8.35;82.29
32761;BME280;19126;47.472;7.850;2023-02-13T12:47:00;98376.25;;;8.15;81.91
32761;BME280;19126;47.472;7.850;2023-02-13T12:52:37;98370.38;;;8.11;81.12
32761;BME280;19126;47.472;7.850;2023-02-13T12:55:18;98371.84;;;8.27;83.69
32761;BME280;19126;47.472;7.850;2023-02-13T12:57:54;98366.38;;;8.30;83.66
32761;BME280;19126;47.472;7.850;2023-02-13T13:00:34;98379.44;;;8.18;82.19
32761;BME280;19126;47.472;7.850;2023-02-13T13:06:26;98363.63;;;8.20;81.56
32761;BME280;19126;47.472;7.850;2023-02-13T13:09:06;98363.88;;;8.17;82.09
32761;BME280;19126;47.472;7.850;2023-02-13T13:12:00;98365.53;;;8.18;83.90
32761;BME280;19126;47.472;7.850;2023-02-13T13:14:42;98369.59;;;7.86;83.37
32761;BME280;19126;47.472;7.850;2023-02-13T13:17:24;98355.78;;;7.84;83.45
32761;BME280;19126;47.472;7.850;2023-02-13T13:19:58;98347.50;;;7.90;83.46
32761;BME280;19126;47.472;7.850;2023-02-13T13:22:40;98351.13;;;7.76;82.05
32761;BME280;19126;47.472;7.850;2023-02-13T13:25:29;98359.34;;;7.83;83.33
32761;BME280;19126;47.472;7.850;2023-02-13T13:28:10;98347.97;;;7.96;84.20
32761;BME280;19126;47.472;7.850;2023-02-13T13:30:43;98348.38;;;8.02;83.87
32761;BME280;19126;47.472;7.850;2023-02-13T13:33:13;98349.91;;;8.05;84.62
32761;BME280;19126;47.472;7.850;2023-02-13T13:35:50;98339.56;;;8.03;83.62
32761;BME280;19126;47.472;7.850;2023-02-13T13:38:29;98345.03;;;8.00;83.56
32761;BME280;19126;47.472;7.850;2023-02-13T13:41:15;98350.88;;;8.15;85.42
32761;BME280;19126;47.472;7.850;2023-02-13T13:43:57;98340.06;;;8.20;83.82
32761;BME280;19126;47.472;7.850;2023-02-13T13:46:35;98343.97;;;8.14;81.05
32761;BME280;19126;47.472;7.850;2023-02-13T13:49:18;98350.56;;;8.20;82.40
32761;BME280;19126;47.472;7.850;2023-02-13T13:51:48;98335.91;;;8.17;82.32
32761;BME280;19126;47.472;7.850;2023-02-13T13:54:36;98334.81;;;8.09;82.62
32761;BME280;19126;47.472;7.850;2023-02-13T13:57:19;98345.78;;;8.14;82.67
32761;BME280;19126;47.472;7.850;2023-02-13T14:00:24;98339.63;;;7.90;82.72
32761;BME280;19126;47.472;7.850;2023-02-13T14:03:24;98328.22;;;7.91;82.05
32761;BME280;19126;47.472;7.850;2023-02-13T14:06:07;98336.22;;;8.01;82.71
32761;BME280;19126;47.472;7.850;2023-02-13T14:11:46;98321.41;;;7.89;82.66
32761;BME280;19126;47.472;7.850;2023-02-13T14:14:49;98325.84;;;7.88;84.08
32761;BME280;19126;47.472;7.850;2023-02-13T14:17:52;98322.88;;;7.93;84.69
32761;BME280;19126;47.472;7.850;2023-02-13T14:20:36;98335.50;;;7.99;83.88
32761;BME280;19126;47.472;7.850;2023-02-13T14:23:42;98334.56;;;8.00;84.21
32761;BME280;19126;47.472;7.850;2023-02-13T14:26:34;98336.09;;;8.03;84.56
32761;BME280;19126;47.472;7.850;2023-02-13T14:29:33;98338.00;;;8.01;84.75
32761;BME280;19126;47.472;7.850;2023-02-13T14:32:16;98321.91;;;7.94;86.69
32761;BME280;19126;47.472;7.850;2023-02-13T14:34:55;98334.56;;;8.00;86.46
32761;BME280;19126;47.472;7.850;2023-02-13T14:37:27;98334.91;;;7.96;85.57
32761;BME280;19126;47.472;7.850;2023-02-13T14:43:02;98330.13;;;7.89;85.20
32761;BME280;19126;47.472;7.850;2023-02-13T14:45:45;98322.38;;;7.88;86.38
32761;BME280;19126;47.472;7.850;2023-02-13T14:48:13;98331.78;;;7.90;85.22
32761;BME280;19126;47.472;7.850;2023-02-13T14:50:52;98329.41;;;7.87;85.78
32761;BME280;19126;47.472;7.850;2023-02-13T14:53:26;98328.31;;;7.90;84.66
32761;BME280;19126;47.472;7.850;2023-02-13T14:56:04;98324.28;;;7.86;85.06
32761;BME280;19126;47.472;7.850;2023-02-13T14:58:42;98320.94;;;7.84;84.45
32761;BME280;19126;47.472;7.850;2023-02-13T15:01:17;98316.66;;;7.83;85.78
32761;BME280;19126;47.472;7.850;2023-02-13T15:03:51;98323.69;;;7.82;85.15
32761;BME280;19126;47.472;7.850;2023-02-13T15:06:34;98320.84;;;7.85;84.98
32761;BME280;19126;47.472;7.850;2023-02-13T15:12:02;98318.75;;;7.66;86.52
32761;BME280;19126;47.472;7.850;2023-02-13T15:14:31;98321.59;;;7.63;87.29
32761;BME280;19126;47.472;7.850;2023-02-13T15:17:04;98317.19;;;7.63;87.58
32761;BME280;19126;47.472;7.850;2023-02-13T15:19:44;98317.66;;;7.57;86.89
32761;BME280;19126;47.472;7.850;2023-02-13T15:22:17;98317.66;;;7.57;86.38
32761;BME280;19126;47.472;7.850;2023-02-13T15:24:49;98308.69;;;7.48;86.77
32761;BME280;19126;47.472;7.850;2023-02-13T15:27:27;98312.59;;;7.43;87.32
32761;BME280;19126;47.472;7.850;2023-02-13T15:29:57;98307.66;;;7.27;89.02
32761;BME280;19126;47.472;7.850;2023-02-13T15:32:36;98311.44;;;7.23;90.20
32761;BME280;19126;47.472;7.850;2023-02-13T15:35:16;98309.25;;;7.16;89.83
32761;BME280;19126;47.472;7.850;2023-02-13T15:37:47;98313.25;;;7.09;89.32
32761;BME280;19126;47.472;7.850;2023-02-13T15:40:16;98299.81;;;7.02;89.55
32761;BME280;19126;47.472;7.850;2023-02-13T15:42:57;98312.47;;;6.96;90.09
32761;BME280;19126;47.472;7.850;2023-02-13T15:45:27;98312.38;;;6.84;91.44
32761;BME280;19126;47.472;7.850;2023-02-13T15:47:57;98304.97;;;6.78;90.39
32761;BME280;19126;47.472;7.850;2023-02-13T15:50:39;98298.31;;;6.74;90.62
32761;BME280;19126;47.472;7.850;2023-02-13T15:53:11;98301.78;;;6.62;91.24
32761;BME280;19126;47.472;7.850;2023-02-13T15:55:39;98301.56;;;6.65;90.49
32761;BME280;19126;47.472;7.850;2023-02-13T15:58:11;98299.91;;;6.51;91.64
32761;BME280;19126;47.472;7.850;2023-02-13T16:00:40;98309.41;;;6.52;91.28
32761;BME280;19126;47.472;7.850;2023-02-13T16:03:16;98297.00;;;6.42;91.63
32761;BME280;19126;47.472;7.850;2023-02-13T16:05:59;98304.22;;;6.39;91.51
32761;BME280;19126;47.472;7.850;2023-02-13T16:08:32;98320.31;;;6.33;92.09
32761;BME280;19126;47.472;7.850;2023-02-13T16:11:33;98306.94;;;6.24;92.40
32761;BME280;19126;47.472;7.850;2023-02-13T16:14:13;98319.13;;;6.24;92.09
32761;BME280;19126;47.472;7.850;2023-02-13T16:16:47;98322.91;;;6.20;92.03
32761;BME280;19126;47.472;7.850;2023-02-13T16:19:26;98316.13;;;6.17;92.42
32761;BME280;19126;47.472;7.850;2023-02-13T16:22:03;98308.06;;;6.07;92.31
32761;BME280;19126;47.472;7.850;2023-02-13T16:24:36;98313.63;;;6.03;92.67
32761;BME280;19126;47.472;7.850;2023-02-13T16:27:09;98317.53;;;5.95;93.54
32761;BME280;19126;47.472;7.850;2023-02-13T16:29:46;98320.44;;;5.91;94.19
32761;BME280;19126;47.472;7.850;2023-02-13T16:32:26;98317.31;;;5.85;94.62
32761;BME280;19126;47.472;7.850;2023-02-13T16:35:16;98331.06;;;5.75;95.20
32761;BME280;19126;47.472;7.850;2023-02-13T16:37:49;98318.84;;;5.62;96.06
32761;BME280;19126;47.472;7.850;2023-02-13T16:40:49;98302.13;;;5.52;96.67
32761;BME280;19126;47.472;7.850;2023-02-13T16:43:35;98310.63;;;5.41;97.71
32761;BME280;19126;47.472;7.850;2023-02-13T16:46:17;98320.91;;;5.30;98.19
32761;BME280;19126;47.472;7.850;2023-02-13T16:48:46;98312.75;;;5.21;98.94
32761;BME280;19126;47.472;7.850;2023-02-13T16:51:15;98323.97;;;5.09;99.45
32761;BME280;19126;47.472;7.850;2023-02-13T16:53:55;98324.44;;;5.01;100.00
32761;BME280;19126;47.472;7.850;2023-02-13T16:56:36;98319.56;;;4.82;100.00
32761;BME280;19126;47.472;7.850;2023-02-13T16:59:09;98323.47;;;4.75;100.00
32761;BME280;19126;47.472;7.850;2023-02-13T17:02:12;98324.50;;;4.58;100.00
32761;BME280;19126;47.472;7.850;2023-02-13T17:05:04;98331.56;;;4.41;100.00
32761;BME280;19126;47.472;7.850;2023-02-13T17:07:55;98328.97;;;4.27;100.00
32761;BME280;19126;47.472;7.850;2023-02-13T17:10:27;98338.97;;;4.04;100.00
32761;BME280;19126;47.472;7.850;2023-02-13T17:13:31;98333.78;;;3.73;100.00
32761;BME280;19126;47.472;7.850;2023-02-13T17:16:01;98338.34;;;3.54;100.00
32761;BME280;19126;47.472;7.850;2023-02-13T17:18:36;98335.56;;;3.10;100.00
32761;BME280;19126;47.472;7.850;2023-02-13T17:21:11;98337.84;;;3.00;100.00
32761;BME280;19126;47.472;7.850;2023-02-13T17:23:40;98344.59;;;2.71;100.00
32761;BME280;19126;47.472;7.850;2023-02-13T17:26:07;98344.38;;;2.42;100.00
32761;BME280;19126;47.472;7.850;2023-02-13T17:28:35;98346.22;;;2.40;100.00
32761;BME280;19126;47.472;7.850;2023-02-13T17:31:02;98341.38;;;2.16;100.00
32761;BME280;19126;47.472;7.850;2023-02-13T17:33:30;98344.19;;;2.11;100.00
32761;BME280;19126;47.472;7.850;2023-02-13T17:35:58;98355.19;;;1.99;100.00
32761;BME280;19126;47.472;7.850;2023-02-13T17:38:26;98353.13;;;1.88;100.00
32761;BME280;19126;47.472;7.850;2023-02-13T17:40:56;98353.19;;;1.69;100.00
32761;BME280;19126;47.472;7.850;2023-02-13T17:43:27;98358.47;;;1.67;100.00
32761;BME280;19126;47.472;7.850;2023-02-13T17:45:56;98360.28;;;1.65;100.00
32761;BME280;19126;47.472;7.850;2023-02-13T17:48:31;98357.16;;;1.58;100.00
32761;BME280;19126;47.472;7.850;2023-02-13T17:51:01;98357.28;;;1.38;100.00
32761;BME280;19126;47.472;7.850;2023-02-13T17:53:32;98358.31;;;1.34;100.00
32761;BME280;19126;47.472;7.850;2023-02-13T17:56:08;98355.25;;;1.25;100.00
32761;BME280;19126;47.472;7.850;2023-02-13T17:58:43;98352.06;;;1.01;100.00
32761;BME280;19126;47.472;7.850;2023-02-13T18:01:14;98356.41;;;1.00;100.00
32761;BME280;19126;47.472;7.850;2023-02-13T18:11:29;98368.56;;;0.60;100.00
32761;BME280;19126;47.472;7.850;2023-02-13T18:14:00;98371.34;;;0.55;100.00
32761;BME280;19126;47.472;7.850;2023-02-13T18:16:46;98359.59;;;0.48;100.00
32761;BME280;19126;47.472;7.850;2023-02-13T18:19:27;98363.31;;;0.42;100.00
32761;BME280;19126;47.472;7.850;2023-02-13T18:21:58;98374.88;;;0.34;100.00
32761;BME280;19126;47.472;7.850;2023-02-13T18:24:34;98354.19;;;0.13;100.00
32761;BME280;19126;47.472;7.850;2023-02-13T18:27:36;98362.53;;;-0.01;100.00
32761;BME280;19126;47.472;7.850;2023-02-13T18:30:18;98361.53;;;0.03;100.00
32761;BME280;19126;47.472;7.850;2023-02-13T18:33:05;98349.81;;;-0.06;100.00
32761;BME280;19126;47.472;7.850;2023-02-13T18:35:48;98355.25;;;-0.12;100.00
32761;BME280;19126;47.472;7.850;2023-02-13T18:38:28;98357.69;;;-0.09;100.00
32761;BME280;19126;47.472;7.850;2023-02-13T18:40:58;98361.09;;;-0.08;100.00
32761;BME280;19126;47.472;7.850;2023-02-13T18:43:42;98364.59;;;-0.09;100.00
32761;BME280;19126;47.472;7.850;2023-02-13T18:46:27;98359.81;;;-0.19;100.00
32761;BME280;19126;47.472;7.850;2023-02-13T18:49:05;98355.50;;;-0.18;100.00
32761;BME280;19126;47.472;7.850;2023-02-13T18:51:37;98364.31;;;-0.24;100.00
32761;BME280;19126;47.472;7.850;2023-02-13T18:54:06;98359.41;;;-0.30;100.00
32761;BME280;19126;47.472;7.850;2023-02-13T18:56:36;98363.09;;;-0.36;100.00
32761;BME280;19126;47.472;7.850;2023-02-13T18:59:16;98355.53;;;-0.40;100.00
32761;BME280;19126;47.472;7.850;2023-02-13T19:01:50;98360.16;;;-0.49;100.00